Time;durP1;ratioP1;P1;durP2;ratioP2;P2;SDS_P1;SDS_P2;PMS_P1;PMS_P2;Temp;Humidity;BMP_temperature;BMP_pressure;BME280_temperature;BME280_humidity;BME280_pressure;Samples;Min_cycle;Max_cycle;Signal;HPM_P1;HPM_P2
2022/02/12 00:02:10;;;;;;;;;;;;;;;;;;7394331;19;2318;-42
2022/02/12 00:04:37;;;;;;;;;;;;;;;;;;7393714;19;2292;-42
2022/02/12 00:07:05;;;;;;;;;;;;;;;;;;7394624;19;2374;-43
2022/02/12 00:09:32;;;;;;;;;;;;;;;;;;7394681;19;2286;-44
2022/02/12 00:11:59;;;;;;;;;;;;;;;;;;7394132;19;2343;-43
2022/02/12 00:14:26;;;;;;;;;;;;;;;;;;7394585;19;2376;-43
2022/02/12 00:16:55;;;;;;;;;;;;;;;;;;7394122;19;2131;-41
2022/02/12 00:19:22;;;;;;;;;;;;;;;;;;7391399;19;2348;-41
2022/02/12 00:21:50;;;;;;;;;;;;;;;;;;7393736;19;2351;-43
2022/02/12 00:24:17;;;;;;;;;;;;;;;;;;7392246;19;2083;-41
2022/02/12 00:26:44;;;;;;;;;;;;;;;;;;7394220;19;2329;-42
2022/02/12 00:29:11;;;;;;;;;;;;;;;;;;7394727;19;2339;-45
2022/02/12 00:31:38;;;;;;;;;;;;;;;;;;7394184;19;2282;-44
2022/02/12 00:34:05;;;;;;;;;;;;;;;;;;7392929;19;2201;-43
2022/02/12 00:36:33;;;;;;;;;;;;;;;;;;7393473;19;2056;-43
2022/02/12 00:39:01;;;;;;;;;;;;;;;;;;7393142;19;2002;-42
2022/02/12 00:41:29;;;;;;;;;;;;;;;;;;7393518;19;2050;-44
2022/02/12 00:43:56;;;;;;;;;;;;;;;;;;7394289;19;2272;-42
2022/02/12 00:46:23;;;;;;;;;;;;;;;;;;7393779;19;2120;-43
2022/02/12 00:48:50;;;;;;;;;;;;;;;;;;7393736;19;2252;-44
2022/02/12 00:51:17;;;;;;;;;;;;;;;;;;7390406;19;2336;-43
2022/02/12 00:53:44;;;;;;;;;;;;;;;;;;7393390;19;1591;-44
2022/02/12 00:56:11;;;;;;;;;;;;;;;;;;7393118;19;2323;-42
2022/02/12 00:58:39;;;;;;;;;;;;;;;;;;7392510;19;2078;-44
2022/02/12 01:01:06;;;;;;;;;;;;;;;;;;7395700;19;2207;-42
2022/02/12 01:03:34;;;;;;;;;;;;;;;;;;7391903;19;2083;-42
2022/02/12 01:06:01;;;;;;;;;;;;;;;;;;7392334;19;1988;-41
2022/02/12 01:08:28;;;;;;;;;;;;;;;;;;7392642;19;2288;-44
2022/02/12 01:10:55;;;;;;;;;;;;;;;;;;7392196;19;2209;-41
2022/02/12 01:13:22;;;;;;;;;;;;;;;;;;7390258;19;2104;-41
2022/02/12 01:15:49;;;;;;;;;;;;;;;;;;7391977;19;2069;-42
2022/02/12 01:18:16;;;;;;;;;;;;;;;;;;7392162;19;2302;-42
2022/02/12 01:20:44;;;;;;;;;;;;;;;;;;7390816;19;2399;-41
2022/02/12 01:23:11;;;;;;;;;;;;;;;;;;7392479;19;2182;-42
2022/02/12 01:25:38;;;;;;;;;;;;;;;;;;7392165;19;1939;-41
2022/02/12 01:28:06;;;;;;;;;;;;;;;;;;7391455;19;2231;-45
2022/02/12 01:30:33;;;;;;;;;;;;;;;;;;7391729;19;2200;-43
2022/02/12 01:33:00;;;;;;;;;;;;;;;;;;7392015;19;1953;-41
2022/02/12 01:35:27;;;;;;;;;;;;;;;;;;7392465;19;2366;-41
2022/02/12 01:37:56;;;;;;;;;;;;;;;;;;7391623;19;2289;-42
2022/02/12 01:40:25;;;;;;;;;;;;;;;;;;7390592;19;2316;-44
2022/02/12 01:42:53;;;;;;;;;;;;;;;;;;7391187;19;2217;-42
2022/02/12 01:45:22;;;;;;;;;;;;;;;;;;7394560;19;2324;-41
2022/02/12 01:47:50;;;;;;;;;;;;;;;;;;7391666;19;2285;-45
2022/02/12 01:50:18;;;;;;;;;;;;;;;;;;7390152;19;2073;-41
2022/02/12 01:52:46;;;;;;;;;;;;;;;;;;7391034;19;2381;-45
2022/02/12 01:55:14;;;;;;;;;;;;;;;;;;7390838;19;1988;-42
2022/02/12 01:57:41;;;;;;;;;;;;;;;;;;7390556;19;1921;-42
2022/02/12 02:00:10;;;;;;;;;;;;;;;;;;7389792;19;2146;-41
2022/02/12 02:02:40;;;;;;;;;;;;;;;;;;7390952;19;2244;-43
2022/02/12 02:05:08;;;;;;;;;;;;;;;;;;7391131;19;2231;-47
2022/02/12 02:07:37;;;;;;;;;;;;;;;;;;7390504;19;2029;-47
2022/02/12 02:10:05;;;;;;;;;;;;;;;;;;7389787;19;2038;-42
2022/02/12 02:12:33;;;;;;;;;;;;;;;;;;7389974;19;2351;-43
2022/02/12 02:15:00;;;;;;;;;;;;;;;;;;7391338;19;2360;-40
2022/02/12 02:17:27;;;;;;;;;;;;;;;;;;7391237;19;1987;-43
2022/02/12 02:19:56;;;;;;;;;;;;;;;;;;7387908;19;2112;-42
2022/02/12 02:22:33;;;;;;;;;;;;;;;;;;7389254;19;2230;-43
2022/02/12 02:25:00;;;;;;;;;;;;;;;;;;7397836;19;2513;-45
2022/02/12 02:27:28;;;;;;;;;;;;;;;;;;7396110;19;2273;-43
2022/02/12 02:29:56;;;;;;;;;;;;;;;;;;7398151;19;2337;-42
2022/02/12 02:32:23;;;;;;;;;;;;;;;;;;7397585;19;2299;-41
2022/02/12 02:34:52;;;;;;;;;;;;;;;;;;7397255;19;2175;-42
2022/02/12 02:37:21;;;;;;;;;;;;;;;;;;7395271;19;2803;-41
2022/02/12 02:39:48;;;;;;;;;;;;;;;;;;7396065;19;2395;-41
2022/02/12 02:42:15;;;;;;;;;;;;;;;;;;7396955;19;2423;-44
2022/02/12 02:44:43;;;;;;;;;;;;;;;;;;7399633;19;2301;-42
2022/02/12 02:49:56;;;;;;;;;;;;;;;;;;7395643;19;2354;-44
2022/02/12 02:57:54;;;;;;;;;;;;;;;;;;7396785;19;2028;-43
2022/02/12 03:00:21;;;;;;;;;;;;;;;;;;7395233;19;2279;-42
2022/02/12 03:02:48;;;;;;;;;;;;;;;;;;7396801;19;2291;-57
2022/02/12 03:05:15;;;;;;;;;;;;;;;;;;7396571;19;2289;-42
2022/02/12 03:07:43;;;;;;;;;;;;;;;;;;7396479;19;1970;-42
2022/02/12 03:10:10;;;;;;;;;;;;;;;;;;7396946;19;2311;-45
2022/02/12 03:12:38;;;;;;;;;;;;;;;;;;7396135;19;2113;-43
2022/02/12 03:15:07;;;;;;;;;;;;;;;;;;7396257;19;2225;-47
2022/02/12 03:17:34;;;;;;;;;;;;;;;;;;7396942;19;2330;-41
2022/02/12 03:20:01;;;;;;;;;;;;;;;;;;7395032;19;2383;-44
2022/02/12 03:22:28;;;;;;;;;;;;;;;;;;7395513;19;2061;-41
2022/02/12 03:24:58;;;;;;;;;;;;;;;;;;7395626;19;2282;-40
2022/02/12 03:27:25;;;;;;;;;;;;;;;;;;7396416;19;2183;-41
2022/02/12 03:29:52;;;;;;;;;;;;;;;;;;7395792;19;2320;-47
2022/02/12 03:32:19;;;;;;;;;;;;;;;;;;7395840;19;2129;-43
2022/02/12 03:34:48;;;;;;;;;;;;;;;;;;7393615;19;2264;-43
2022/02/12 03:37:15;;;;;;;;;;;;;;;;;;7395707;19;2250;-42
2022/02/12 03:39:43;;;;;;;;;;;;;;;;;;7394699;19;2221;-46
2022/02/12 03:42:10;;;;;;;;;;;;;;;;;;7395235;19;2323;-43
2022/02/12 03:44:37;;;;;;;;;;;;;;;;;;7396986;19;2330;-42
2022/02/12 03:47:04;;;;;;;;;;;;;;;;;;7395791;19;2358;-41
2022/02/12 03:49:31;;;;;;;;;;;;;;;;;;7394849;19;2340;-42
2022/02/12 03:51:59;;;;;;;;;;;;;;;;;;7393705;19;1869;-42
2022/02/12 03:54:26;;;;;;;;;;;;;;;;;;7389918;19;2112;-42
2022/02/12 03:56:53;;;;;;;;;;;;;;;;;;7392849;19;2302;-41
2022/02/12 03:59:20;;;;;;;;;;;;;;;;;;7390155;19;2154;-45
2022/02/12 04:01:47;;;;;;;;;;;;;;;;;;7390785;19;2082;-43
2022/02/12 04:04:15;;;;;;;;;;;;;;;;;;7392053;19;2180;-44
2022/02/12 04:06:42;;;;;;;;;;;;;;;;;;7394780;19;2262;-42
2022/02/12 04:09:09;;;;;;;;;;;;;;;;;;7393982;19;2270;-45
2022/02/12 04:11:36;;;;;;;;;;;;;;;;;;7394061;19;2355;-43
2022/02/12 04:14:03;;;;;;;;;;;;;;;;;;7395217;19;1884;-43
2022/02/12 04:16:30;;;;;;;;;;;;;;;;;;7394880;19;1677;-43
2022/02/12 04:18:58;;;;;;;;;;;;;;;;;;7394800;19;2310;-42
2022/02/12 04:21:25;;;;;;;;;;;;;;;;;;7392684;19;2429;-45
2022/02/12 04:23:52;;;;;;;;;;;;;;;;;;7393634;19;1942;-41
2022/02/12 04:26:19;;;;;;;;;;;;;;;;;;7395432;19;2167;-43
2022/02/12 04:28:49;;;;;;;;;;;;;;;;;;7393881;19;2423;-41
2022/02/12 04:31:16;;;;;;;;;;;;;;;;;;7393352;19;2074;-42
2022/02/12 04:33:43;;;;;;;;;;;;;;;;;;7393275;19;1732;-46
2022/02/12 04:36:10;;;;;;;;;;;;;;;;;;7393101;19;2162;-42
2022/02/12 04:38:38;;;;;;;;;;;;;;;;;;7393367;19;2057;-45
2022/02/12 04:41:05;;;;;;;;;;;;;;;;;;7391264;19;2303;-43
2022/02/12 04:43:52;;;;;;;;;;;;;;;;;;7392358;19;2530;-42
2022/02/12 04:46:20;;;;;;;;;;;;;;;;;;7392691;19;2102;-43
2022/02/12 04:48:49;;;;;;;;;;;;;;;;;;7393150;19;2078;-47
2022/02/12 04:51:17;;;;;;;;;;;;;;;;;;7390871;19;1827;-42
2022/02/12 04:53:45;;;;;;;;;;;;;;;;;;7392472;19;2266;-40
2022/02/12 04:56:13;;;;;;;;;;;;;;;;;;7392789;19;2348;-42
2022/02/12 04:58:40;;;;;;;;;;;;;;;;;;7392669;19;2166;-43
2022/02/12 05:01:19;;;;;;;;;;;;;;;;;;7391724;19;2137;-42
2022/02/12 05:03:50;;;;;;;;;;;;;;;;;;7392789;19;2294;-44
2022/02/12 05:06:18;;;;;;;;;;;;;;;;;;7392988;19;2088;-47
2022/02/12 05:08:46;;;;;;;;;;;;;;;;;;7390716;19;2451;-50
2022/02/12 05:11:14;;;;;;;;;;;;;;;;;;7391031;19;2467;-42
2022/02/12 05:13:41;;;;;;;;;;;;;;;;;;7392998;19;2147;-42
2022/02/12 05:16:08;;;;;;;;;;;;;;;;;;7392577;19;2391;-44
2022/02/12 05:18:35;;;;;;;;;;;;;;;;;;7390589;19;1533;-42
2022/02/12 05:21:02;;;;;;;;;;;;;;;;;;7390232;19;2286;-42
2022/02/12 05:23:29;;;;;;;;;;;;;;;;;;7392848;19;2216;-41
2022/02/12 05:25:57;;;;;;;;;;;;;;;;;;7391114;19;2008;-45
2022/02/12 05:28:24;;;;;;;;;;;;;;;;;;7392042;19;1986;-45
2022/02/12 05:30:51;;;;;;;;;;;;;;;;;;7392160;19;2254;-41
2022/02/12 05:33:18;;;;;;;;;;;;;;;;;;7391267;19;2256;-44
2022/02/12 05:35:46;;;;;;;;;;;;;;;;;;7389764;19;1727;-44
2022/02/12 05:38:13;;;;;;;;;;;;;;;;;;7391014;19;2234;-47
2022/02/12 05:40:40;;;;;;;;;;;;;;;;;;7390558;19;2508;-40
2022/02/12 05:43:07;;;;;;;;;;;;;;;;;;7391174;19;2234;-45
2022/02/12 05:45:34;;;;;;;;;;;;;;;;;;7395194;19;2303;-41
2022/02/12 05:48:01;;;;;;;;;;;;;;;;;;7392659;19;2206;-45
2022/02/12 05:50:29;;;;;;;;;;;;;;;;;;7390164;19;2390;-47
2022/02/12 05:52:57;;;;;;;;;;;;;;;;;;7391072;19;2226;-41
2022/02/12 05:55:25;;;;;;;;;;;;;;;;;;7391597;19;1884;-47
2022/02/12 05:57:57;;;;;;;;;;;;;;;;;;7390155;19;1882;-43
2022/02/12 06:00:25;;;;;;;;;;;;;;;;;;7390523;19;2168;-45
2022/02/12 06:02:52;;;;;;;;;;;;;;;;;;7390744;19;1926;-44
2022/02/12 06:05:22;;;;;;;;;;;;;;;;;;7390821;19;2331;-44
2022/02/12 06:07:50;;;;;;;;;;;;;;;;;;7390693;19;2354;-46
2022/02/12 06:10:17;;;;;;;;;;;;;;;;;;7390583;19;1883;-41
2022/02/12 06:12:44;;;;;;;;;;;;;;;;;;7389298;19;2491;-44
2022/02/12 06:15:11;;;;;;;;;;;;;;;;;;7390195;19;2291;-44
2022/02/12 06:17:38;;;;;;;;;;;;;;;;;;7390532;19;2262;-44
2022/02/12 06:20:06;;;;;;;;;;;;;;;;;;7390444;19;2150;-43
2022/02/12 06:22:34;;;;;;;;;;;;;;;;;;7390924;19;2030;-48
2022/02/12 06:25:01;;;;;;;;;;;;;;;;;;7390182;19;2319;-44
2022/02/12 06:27:28;;;;;;;;;;;;;;;;;;7390084;19;1981;-43
2022/02/12 06:29:56;;;;;;;;;;;;;;;;;;7390026;19;2208;-42
2022/02/12 06:32:23;;;;;;;;;;;;;;;;;;7390233;19;2282;-42
2022/02/12 06:34:54;;;;;;;;;;;;;;;;;;7390447;19;2199;-44
2022/02/12 06:37:22;;;;;;;;;;;;;;;;;;7390047;19;2381;-46
2022/02/12 06:39:49;;;;;;;;;;;;;;;;;;7389638;19;1963;-49
2022/02/12 06:42:17;;;;;;;;;;;;;;;;;;7388034;19;2793;-44
2022/02/12 06:44:44;;;;;;;;;;;;;;;;;;7391794;19;2488;-44
2022/02/12 06:47:12;;;;;;;;;;;;;;;;;;7389643;19;1951;-44
2022/02/12 06:49:39;;;;;;;;;;;;;;;;;;7388794;19;2352;-48
2022/02/12 06:52:07;;;;;;;;;;;;;;;;;;7389680;19;2176;-42
2022/02/12 06:54:34;;;;;;;;;;;;;;;;;;7390238;19;2349;-43
2022/02/12 06:57:03;;;;;;;;;;;;;;;;;;7390707;19;2306;-41
2022/02/12 06:59:30;;;;;;;;;;;;;;;;;;7389125;19;2072;-44
2022/02/12 07:01:58;;;;;;;;;;;;;;;;;;7386849;19;2284;-42
2022/02/12 07:04:29;;;;;;;;;;;;;;;;;;7389364;19;2347;-48
2022/02/12 07:06:56;;;;;;;;;;;;;;;;;;7388976;19;2204;-41
2022/02/12 07:09:23;;;;;;;;;;;;;;;;;;7388759;19;2002;-47
2022/02/12 07:11:50;;;;;;;;;;;;;;;;;;7395675;19;2189;-45
2022/02/12 07:14:17;;;;;;;;;;;;;;;;;;7396178;19;2246;-42
2022/02/12 07:16:45;;;;;;;;;;;;;;;;;;7396043;19;2365;-41
2022/02/12 07:19:12;;;;;;;;;;;;;;;;;;7396755;19;2284;-47
2022/02/12 07:21:39;;;;;;;;;;;;;;;;;;7394246;19;2362;-43
2022/02/12 07:24:08;;;;;;;;;;;;;;;;;;7394982;19;2293;-43
2022/02/12 07:26:35;;;;;;;;;;;;;;;;;;7396880;19;2320;-44
2022/02/12 07:29:03;;;;;;;;;;;;;;;;;;7396155;19;2225;-48
2022/02/12 07:31:32;;;;;;;;;;;;;;;;;;7396126;19;2365;-44
2022/02/12 07:33:59;;;;;;;;;;;;;;;;;;7395354;19;2186;-47
2022/02/12 07:36:26;;;;;;;;;;;;;;;;;;7395213;19;2272;-42
2022/02/12 07:38:53;;;;;;;;;;;;;;;;;;7395018;19;2263;-47
2022/02/12 07:41:22;;;;;;;;;;;;;;;;;;7394589;19;1821;-43
2022/02/12 07:43:51;;;;;;;;;;;;;;;;;;7395269;19;2379;-46
2022/02/12 07:46:18;;;;;;;;;;;;;;;;;;7395756;19;2105;-46
2022/02/12 07:48:47;;;;;;;;;;;;;;;;;;7394855;19;2159;-47
2022/02/12 07:51:14;;;;;;;;;;;;;;;;;;7392774;19;2296;-42
2022/02/12 07:53:41;;;;;;;;;;;;;;;;;;7395183;19;2203;-46
2022/02/12 07:56:08;;;;;;;;;;;;;;;;;;7394790;19;2174;-45
2022/02/12 07:58:39;;;;;;;;;;;;;;;;;;7395113;19;2182;-41
2022/02/12 08:01:06;;;;;;;;;;;;;;;;;;7394324;19;2218;-42
2022/02/12 08:03:34;;;;;;;;;;;;;;;;;;7394845;19;2217;-49
2022/02/12 08:06:01;;;;;;;;;;;;;;;;;;7394284;19;2257;-44
2022/02/12 08:08:28;;;;;;;;;;;;;;;;;;7394984;19;1379;-44
2022/02/12 08:13:42;;;;;;;;;;;;;;;;;;7394815;19;2006;-48
2022/02/12 08:16:09;;;;;;;;;;;;;;;;;;7394309;19;2340;-44
2022/02/12 08:18:36;;;;;;;;;;;;;;;;;;7393534;19;2438;-45
2022/02/12 08:21:05;;;;;;;;;;;;;;;;;;7392872;19;2120;-44
2022/02/12 08:23:32;;;;;;;;;;;;;;;;;;7395254;19;2052;-43
2022/02/12 08:25:59;;;;;;;;;;;;;;;;;;7394499;19;2205;-45
2022/02/12 08:28:26;;;;;;;;;;;;;;;;;;7394484;19;2163;-42
2022/02/12 08:30:54;;;;;;;;;;;;;;;;;;7393873;19;2340;-45
2022/02/12 08:33:22;;;;;;;;;;;;;;;;;;7394031;19;2196;-42
2022/02/12 08:35:52;;;;;;;;;;;;;;;;;;7393380;19;2085;-42
2022/02/12 08:38:20;;;;;;;;;;;;;;;;;;7393696;19;2279;-45
2022/02/12 08:40:47;;;;;;;;;;;;;;;;;;7392318;19;1987;-45
2022/02/12 08:43:14;;;;;;;;;;;;;;;;;;7393399;19;2282;-51
2022/02/12 08:45:41;;;;;;;;;;;;;;;;;;7397142;19;2283;-44
2022/02/12 08:48:10;;;;;;;;;;;;;;;;;;7392847;19;1935;-43
2022/02/12 08:50:39;;;;;;;;;;;;;;;;;;7391724;19;2052;-43
2022/02/12 08:53:06;;;;;;;;;;;;;;;;;;7393443;19;2230;-43
2022/02/12 08:55:33;;;;;;;;;;;;;;;;;;7391598;19;2249;-43
2022/02/12 08:58:01;;;;;;;;;;;;;;;;;;7393351;19;2258;-45
2022/02/12 09:00:28;;;;;;;;;;;;;;;;;;7392485;19;2293;-43
2022/02/12 09:03:12;;;;;;;;;;;;;;;;;;7392822;19;2155;-48
2022/02/12 09:05:39;;;;;;;;;;;;;;;;;;7392952;19;2281;-49
2022/02/12 09:08:08;;;;;;;;;;;;;;;;;;7391047;19;2346;-44
2022/02/12 09:10:36;;;;;;;;;;;;;;;;;;7390764;19;1981;-42
2022/02/12 09:13:03;;;;;;;;;;;;;;;;;;7393406;19;1921;-45
2022/02/12 09:15:30;;;;;;;;;;;;;;;;;;7392906;19;2267;-45
2022/02/12 09:17:57;;;;;;;;;;;;;;;;;;7392306;19;2307;-47
2022/02/12 09:20:24;;;;;;;;;;;;;;;;;;7392175;19;2268;-42
2022/02/12 09:22:52;;;;;;;;;;;;;;;;;;7392760;19;2028;-44
2022/02/12 09:25:19;;;;;;;;;;;;;;;;;;7389866;19;1779;-42
2022/02/12 09:27:46;;;;;;;;;;;;;;;;;;7391672;19;1816;-41
2022/02/12 09:30:13;;;;;;;;;;;;;;;;;;7392175;19;1712;-47
2022/02/12 09:32:40;;;;;;;;;;;;;;;;;;7389830;19;2348;-45
2022/02/12 09:35:08;;;;;;;;;;;;;;;;;;7392010;19;2274;-51
2022/02/12 09:37:35;;;;;;;;;;;;;;;;;;7391557;19;1581;-43
2022/02/12 09:40:04;;;;;;;;;;;;;;;;;;7391628;19;2176;-46
2022/02/12 09:42:32;;;;;;;;;;;;;;;;;;7390588;19;2280;-43
2022/02/12 09:44:59;;;;;;;;;;;;;;;;;;7394140;19;2286;-49
2022/02/12 09:47:32;;;;;;;;;;;;;;;;;;7391664;19;1739;-43
2022/02/12 09:49:59;;;;;;;;;;;;;;;;;;7390372;19;2190;-43
2022/02/12 09:52:29;;;;;;;;;;;;;;;;;;7391351;19;2484;-44
2022/02/12 09:54:56;;;;;;;;;;;;;;;;;;7390273;19;2183;-45
2022/02/12 09:57:24;;;;;;;;;;;;;;;;;;7390695;19;1261;-41
2022/02/12 10:00:03;;;;;;;;;;;;;;;;;;7391085;19;2358;-48
2022/02/12 10:02:31;;;;;;;;;;;;;;;;;;7388612;19;2271;-42
2022/02/12 10:05:18;;;;;;;;;;;;;;;;;;7391116;19;2103;-47
2022/02/12 10:07:45;;;;;;;;;;;;;;;;;;7390979;19;2116;-43
2022/02/12 10:10:14;;;;;;;;;;;;;;;;;;7390955;19;2235;-47
2022/02/12 10:12:41;;;;;;;;;;;;;;;;;;7391129;19;2076;-47
2022/02/12 10:15:22;;;;;;;;;;;;;;;;;;7390750;19;2091;-42
2022/02/12 10:17:51;;;;;;;;;;;;;;;;;;7390311;19;1991;-45
2022/02/12 10:20:22;;;;;;;;;;;;;;;;;;7389583;19;2441;-41
2022/02/12 10:22:50;;;;;;;;;;;;;;;;;;7389266;19;2414;-42
2022/02/12 10:25:20;;;;;;;;;;;;;;;;;;7390045;19;2170;-41
2022/02/12 10:27:49;;;;;;;;;;;;;;;;;;7389613;19;2193;-44
2022/02/12 10:30:16;;;;;;;;;;;;;;;;;;7389626;19;2217;-46
2022/02/12 10:32:44;;;;;;;;;;;;;;;;;;7390516;19;2385;-44
2022/02/12 10:35:11;;;;;;;;;;;;;;;;;;7390012;19;2200;-44
2022/02/12 10:37:42;;;;;;;;;;;;;;;;;;7390226;19;2016;-41
2022/02/12 10:40:09;;;;;;;;;;;;;;;;;;7389826;19;1559;-45
2022/02/12 10:42:43;;;;;;;;;;;;;;;;;;7388474;19;2513;-49
2022/02/12 10:45:13;;;;;;;;;;;;;;;;;;7397041;19;1971;-41
2022/02/12 10:47:42;;;;;;;;;;;;;;;;;;7397601;19;2278;-41
2022/02/12 10:50:10;;;;;;;;;;;;;;;;;;7395269;19;2055;-45
2022/02/12 10:52:41;;;;;;;;;;;;;;;;;;7397176;19;1954;-41
2022/02/12 10:55:20;;;;;;;;;;;;;;;;;;7396400;19;2230;-41
2022/02/12 10:57:49;;;;;;;;;;;;;;;;;;7397359;19;2731;-42
2022/02/12 11:00:16;;;;;;;;;;;;;;;;;;7396621;19;1698;-42
2022/02/12 11:02:43;;;;;;;;;;;;;;;;;;7394370;19;1859;-42
2022/02/12 11:05:11;;;;;;;;;;;;;;;;;;7397550;19;2123;-42
2022/02/12 11:07:38;;;;;;;;;;;;;;;;;;7396346;19;2245;-41
2022/02/12 11:10:06;;;;;;;;;;;;;;;;;;7397105;19;2371;-48
2022/02/12 11:12:35;;;;;;;;;;;;;;;;;;7396825;19;2231;-41
2022/02/12 11:15:03;;;;;;;;;;;;;;;;;;7396472;19;2173;-42
2022/02/12 11:17:47;;;;;;;;;;;;;;;;;;7396816;19;2305;-42
2022/02/12 11:20:14;;;;;;;;;;;;;;;;;;7396083;19;2281;-46
2022/02/12 11:22:42;;;;;;;;;;;;;;;;;;7394068;19;2236;-42
2022/02/12 11:25:28;;;;;;;;;;;;;;;;;;7395740;19;1966;-50
2022/02/12 11:28:03;;;;;;;;;;;;;;;;;;7396319;19;2210;-44
2022/02/12 11:30:30;;;;;;;;;;;;;;;;;;7395892;19;2243;-42
2022/02/12 11:32:59;;;;;;;;;;;;;;;;;;7394670;19;2197;-42
2022/02/12 11:35:27;;;;;;;;;;;;;;;;;;7395976;19;2293;-42
2022/02/12 11:37:55;;;;;;;;;;;;;;;;;;7395676;19;2313;-43
2022/02/12 11:40:24;;;;;;;;;;;;;;;;;;7395175;19;1599;-42
2022/02/12 11:42:59;;;;;;;;;;;;;;;;;;7393440;19;2313;-45
2022/02/12 11:45:33;;;;;;;;;;;;;;;;;;7395345;19;1995;-45
2022/02/12 11:48:11;;;;;;;;;;;;;;;;;;7395437;19;1875;-44
2022/02/12 11:50:56;;;;;;;;;;;;;;;;;;7393007;19;2041;-44
2022/02/12 11:53:46;;;;;;;;;;;;;;;;;;7394942;19;1610;-45
2022/02/12 11:56:19;;;;;;;;;;;;;;;;;;7393173;19;2292;-46
2022/02/12 11:58:49;;;;;;;;;;;;;;;;;;7395269;19;2364;-44
2022/02/12 12:01:24;;;;;;;;;;;;;;;;;;7395202;19;2242;-42
2022/02/12 12:04:15;;;;;;;;;;;;;;;;;;7394387;19;2399;-43
2022/02/12 12:07:02;;;;;;;;;;;;;;;;;;7394871;19;2316;-42
2022/02/12 12:09:31;;;;;;;;;;;;;;;;;;7395194;19;2240;-48
2022/02/12 12:12:14;;;;;;;;;;;;;;;;;;7394762;19;2279;-41
2022/02/12 12:14:42;;;;;;;;;;;;;;;;;;7393282;19;2229;-44
2022/02/12 12:17:09;;;;;;;;;;;;;;;;;;7394396;19;2379;-45
2022/02/12 12:19:40;;;;;;;;;;;;;;;;;;7394382;19;1601;-50
2022/02/12 12:22:12;;;;;;;;;;;;;;;;;;7393603;19;2284;-47
2022/02/12 12:24:40;;;;;;;;;;;;;;;;;;7393816;19;2213;-42
2022/02/12 12:27:08;;;;;;;;;;;;;;;;;;7394716;19;2371;-46
2022/02/12 12:32:22;;;;;;;;;;;;;;;;;;7394428;19;2306;-42
2022/02/12 12:35:05;;;;;;;;;;;;;;;;;;7393212;19;2361;-48
2022/02/12 12:37:52;;;;;;;;;;;;;;;;;;7394109;19;2135;-43
2022/02/12 12:40:29;;;;;;;;;;;;;;;;;;7393795;19;2513;-43
2022/02/12 12:43:00;;;;;;;;;;;;;;;;;;7392618;19;2304;-43
2022/02/12 12:45:28;;;;;;;;;;;;;;;;;;7396837;19;2357;-46
2022/02/12 12:47:58;;;;;;;;;;;;;;;;;;7391488;19;2365;-43
2022/02/12 12:50:32;;;;;;;;;;;;;;;;;;7389932;19;1390;-45
2022/02/12 12:53:10;;;;;;;;;;;;;;;;;;7394385;19;2167;-44
2022/02/12 12:55:38;;;;;;;;;;;;;;;;;;7393206;19;2311;-46
2022/02/12 12:58:17;;;;;;;;;;;;;;;;;;7389671;19;2389;-40
2022/02/12 13:00:45;;;;;;;;;;;;;;;;;;7391863;19;2171;-44
2022/02/12 13:03:12;;;;;;;;;;;;;;;;;;7391796;19;2204;-45
2022/02/12 13:05:39;;;;;;;;;;;;;;;;;;7391602;19;1686;-45
2022/02/12 13:08:08;;;;;;;;;;;;;;;;;;7388069;19;2221;-41
2022/02/12 13:10:37;;;;;;;;;;;;;;;;;;7391556;19;1654;-41
2022/02/12 13:13:15;;;;;;;;;;;;;;;;;;7391273;19;2184;-40
2022/02/12 13:15:43;;;;;;;;;;;;;;;;;;7391351;19;2165;-47
2022/02/12 13:18:11;;;;;;;;;;;;;;;;;;7391616;19;1932;-47
2022/02/12 13:20:39;;;;;;;;;;;;;;;;;;7391728;19;2283;-41
2022/02/12 13:23:07;;;;;;;;;;;;;;;;;;7391744;19;2381;-45
2022/02/12 13:25:36;;;;;;;;;;;;;;;;;;7392550;19;2184;-41
2022/02/12 13:28:04;;;;;;;;;;;;;;;;;;7392663;19;1905;-43
2022/02/12 13:30:34;;;;;;;;;;;;;;;;;;7392126;19;1645;-46
2022/02/12 13:33:05;;;;;;;;;;;;;;;;;;7391613;19;2376;-42
2022/02/12 13:35:41;;;;;;;;;;;;;;;;;;7391903;19;2320;-46
2022/02/12 13:38:11;;;;;;;;;;;;;;;;;;7392165;19;2161;-42
2022/02/12 13:40:40;;;;;;;;;;;;;;;;;;7391491;19;2391;-43
2022/02/12 13:43:07;;;;;;;;;;;;;;;;;;7391746;19;1851;-48
2022/02/12 13:45:38;;;;;;;;;;;;;;;;;;7394973;19;2333;-47
2022/02/12 13:48:08;;;;;;;;;;;;;;;;;;7391581;19;2390;-44
2022/02/12 13:50:39;;;;;;;;;;;;;;;;;;7390496;19;2318;-49
2022/02/12 13:53:08;;;;;;;;;;;;;;;;;;7391864;19;2002;-42
2022/02/12 13:55:49;;;;;;;;;;;;;;;;;;7391305;19;2285;-48
2022/02/12 13:58:18;;;;;;;;;;;;;;;;;;7391356;19;1922;-48
2022/02/12 14:00:48;;;;;;;;;;;;;;;;;;7390755;19;2090;-46
2022/02/12 14:03:38;;;;;;;;;;;;;;;;;;7392366;19;2305;-44
2022/02/12 14:06:05;;;;;;;;;;;;;;;;;;7391746;19;2247;-45
2022/02/12 14:08:33;;;;;;;;;;;;;;;;;;7390637;19;2349;-45
2022/02/12 14:11:02;;;;;;;;;;;;;;;;;;7390120;19;2351;-41
2022/02/12 14:13:29;;;;;;;;;;;;;;;;;;7390838;19;2197;-42
2022/02/12 14:15:57;;;;;;;;;;;;;;;;;;7390563;19;2237;-44
2022/02/12 14:18:25;;;;;;;;;;;;;;;;;;7390443;19;2390;-44
2022/02/12 14:20:53;;;;;;;;;;;;;;;;;;7397878;19;2202;-48
2022/02/12 14:23:23;;;;;;;;;;;;;;;;;;7396749;19;2269;-43
2022/02/12 14:25:50;;;;;;;;;;;;;;;;;;7397653;19;2250;-43
2022/02/12 14:28:18;;;;;;;;;;;;;;;;;;7397435;19;2217;-45
2022/02/12 14:30:45;;;;;;;;;;;;;;;;;;7397948;19;2295;-46
2022/02/12 14:33:13;;;;;;;;;;;;;;;;;;7397961;19;2298;-42
2022/02/12 14:35:42;;;;;;;;;;;;;;;;;;7397285;19;1935;-44
2022/02/12 14:38:09;;;;;;;;;;;;;;;;;;7397675;19;2485;-42
2022/02/12 14:40:36;;;;;;;;;;;;;;;;;;7398378;19;2281;-47
2022/02/12 14:43:03;;;;;;;;;;;;;;;;;;7396827;19;2217;-42
2022/02/12 14:45:34;;;;;;;;;;;;;;;;;;7402220;19;1824;-42
2022/02/12 14:48:01;;;;;;;;;;;;;;;;;;7397697;19;2284;-42
2022/02/12 14:50:30;;;;;;;;;;;;;;;;;;7395008;19;1412;-41
2022/02/12 14:53:12;;;;;;;;;;;;;;;;;;7397281;19;2455;-43
2022/02/12 14:55:40;;;;;;;;;;;;;;;;;;7397247;19;2068;-42
2022/02/12 14:58:08;;;;;;;;;;;;;;;;;;7397804;19;2145;-41
2022/02/12 15:00:35;;;;;;;;;;;;;;;;;;7395607;19;2295;-44
2022/02/12 15:03:02;;;;;;;;;;;;;;;;;;7396445;19;2199;-43
2022/02/12 15:05:29;;;;;;;;;;;;;;;;;;7396626;19;2191;-46
2022/02/12 15:07:57;;;;;;;;;;;;;;;;;;7397232;19;2230;-40
2022/02/12 15:10:24;;;;;;;;;;;;;;;;;;7396191;19;2098;-40
2022/02/12 15:12:52;;;;;;;;;;;;;;;;;;7396974;19;2082;-40
2022/02/12 15:15:21;;;;;;;;;;;;;;;;;;7396644;19;2263;-45
2022/02/12 15:17:48;;;;;;;;;;;;;;;;;;7396111;19;2211;-41
2022/02/12 15:20:15;;;;;;;;;;;;;;;;;;7396533;19;2265;-45
2022/02/12 15:22:43;;;;;;;;;;;;;;;;;;7395874;19;1899;-42
2022/02/12 15:25:10;;;;;;;;;;;;;;;;;;7396265;19;2084;-44
2022/02/12 15:27:40;;;;;;;;;;;;;;;;;;7396016;19;2214;-42
2022/02/12 15:30:07;;;;;;;;;;;;;;;;;;7395313;19;2129;-43
2022/02/12 15:32:35;;;;;;;;;;;;;;;;;;7394770;19;2146;-41
2022/02/12 15:35:02;;;;;;;;;;;;;;;;;;7395460;19;2486;-41
2022/02/12 15:37:29;;;;;;;;;;;;;;;;;;7396574;19;2256;-41
2022/02/12 15:39:57;;;;;;;;;;;;;;;;;;7395672;19;2223;-41
2022/02/12 15:42:24;;;;;;;;;;;;;;;;;;7395511;19;2269;-41
2022/02/12 15:44:51;;;;;;;;;;;;;;;;;;7397032;19;2120;-40
2022/02/12 15:47:18;;;;;;;;;;;;;;;;;;7393594;19;2224;-43
2022/02/12 15:49:49;;;;;;;;;;;;;;;;;;7394445;19;2246;-43
2022/02/12 15:52:17;;;;;;;;;;;;;;;;;;7395101;19;2176;-41
2022/02/12 15:54:44;;;;;;;;;;;;;;;;;;7395182;19;2258;-43
2022/02/12 15:57:11;;;;;;;;;;;;;;;;;;7395562;19;1700;-40
2022/02/12 15:59:39;;;;;;;;;;;;;;;;;;7393324;19;2397;-43
2022/02/12 16:02:06;;;;;;;;;;;;;;;;;;7395287;19;2214;-43
2022/02/12 16:04:33;;;;;;;;;;;;;;;;;;7392980;19;2459;-41
2022/02/12 16:07:02;;;;;;;;;;;;;;;;;;7394718;19;2342;-43
2022/02/12 16:09:48;;;;;;;;;;;;;;;;;;7394668;19;2211;-42
2022/02/12 16:12:15;;;;;;;;;;;;;;;;;;7394391;19;2269;-41
2022/02/12 16:14:44;;;;;;;;;;;;;;;;;;7394525;19;2406;-47
2022/02/12 16:17:11;;;;;;;;;;;;;;;;;;7394204;19;2312;-41
2022/02/12 16:19:38;;;;;;;;;;;;;;;;;;7395180;19;2831;-41
2022/02/12 16:22:06;;;;;;;;;;;;;;;;;;7395254;19;2301;-46
2022/02/12 16:24:33;;;;;;;;;;;;;;;;;;7392445;19;2266;-43
2022/02/12 16:27:02;;;;;;;;;;;;;;;;;;7393543;19;2366;-41
2022/02/12 16:29:32;;;;;;;;;;;;;;;;;;7394359;19;2104;-43
2022/02/12 16:32:00;;;;;;;;;;;;;;;;;;7393783;19;2118;-45
2022/02/12 16:34:30;;;;;;;;;;;;;;;;;;7394198;19;2352;-44
2022/02/12 16:37:05;;;;;;;;;;;;;;;;;;7393639;19;2226;-46
2022/02/12 16:39:32;;;;;;;;;;;;;;;;;;7393767;19;2311;-41
2022/02/12 16:42:00;;;;;;;;;;;;;;;;;;7393419;19;2252;-40
2022/02/12 16:44:31;;;;;;;;;;;;;;;;;;7393629;19;2454;-42
2022/02/12 16:46:59;;;;;;;;;;;;;;;;;;7393186;19;2115;-42
2022/02/12 16:49:28;;;;;;;;;;;;;;;;;;7392569;19;2255;-40
2022/02/12 16:51:55;;;;;;;;;;;;;;;;;;7393340;19;2291;-48
2022/02/12 16:54:26;;;;;;;;;;;;;;;;;;7391858;19;2612;-42
2022/02/12 16:56:54;;;;;;;;;;;;;;;;;;7393098;19;2413;-40
2022/02/12 16:59:21;;;;;;;;;;;;;;;;;;7393639;19;2346;-41
2022/02/12 17:01:49;;;;;;;;;;;;;;;;;;7393279;19;2329;-42
2022/02/12 17:04:17;;;;;;;;;;;;;;;;;;7391537;19;2117;-41
2022/02/12 17:06:44;;;;;;;;;;;;;;;;;;7392663;19;2266;-46
2022/02/12 17:09:11;;;;;;;;;;;;;;;;;;7392550;19;2068;-44
2022/02/12 17:11:40;;;;;;;;;;;;;;;;;;7392519;19;2239;-41
2022/02/12 17:14:08;;;;;;;;;;;;;;;;;;7393382;19;2369;-44
2022/02/12 17:16:35;;;;;;;;;;;;;;;;;;7392743;19;2256;-44
2022/02/12 17:19:04;;;;;;;;;;;;;;;;;;7392551;19;2161;-44
2022/02/12 17:21:32;;;;;;;;;;;;;;;;;;7390746;19;2285;-42
2022/02/12 17:24:20;;;;;;;;;;;;;;;;;;7391254;19;2238;-41
2022/02/12 17:26:47;;;;;;;;;;;;;;;;;;7392816;19;1615;-42
2022/02/12 17:29:14;;;;;;;;;;;;;;;;;;7394338;19;2120;-42